sensor_id;sensor_type;location;lat;lon;timestamp;pressure;altitude;pressure_sealevel;temperature;humidity
67654;BME280;54791;52.364;4.648;2022-07-23T04:36:51;101969.38;;;14.16;100.00
67654;BME280;54791;52.364;4.648;2022-07-23T04:39:17;101967.84;;;14.09;100.00
67654;BME280;54791;52.364;4.648;2022-07-23T04:41:42;101961.41;;;14.14;100.00
67654;BME280;54791;52.364;4.648;2022-07-23T04:44:08;101965.47;;;14.26;100.00
67654;BME280;54791;52.364;4.648;2022-07-23T04:46:33;101959.25;;;14.26;100.00
67654;BME280;54791;52.364;4.648;2022-07-23T04:48:59;101960.88;;;14.30;100.00
67654;BME280;54791;52.364;4.648;2022-07-23T04:51:25;101960.59;;;14.38;100.00
67654;BME280;54791;52.364;4.648;2022-07-23T04:53:50;101965.63;;;14.45;100.00
67654;BME280;54791;52.364;4.648;2022-07-23T04:56:16;101969.78;;;14.54;100.00
67654;BME280;54791;52.364;4.648;2022-07-23T04:58:42;101970.47;;;14.59;100.00
67654;BME280;54791;52.364;4.648;2022-07-23T05:01:07;101970.34;;;14.64;100.00
67654;BME280;54791;52.364;4.648;2022-07-23T05:03:33;101971.97;;;14.68;100.00
67654;BME280;54791;52.364;4.648;2022-07-23T05:05:59;101968.56;;;14.63;100.00
67654;BME280;54791;52.364;4.648;2022-07-23T05:08:24;101973.56;;;14.72;100.00
67654;BME280;54791;52.364;4.648;2022-07-23T05:10:50;101977.81;;;14.78;100.00
67654;BME280;54791;52.364;4.648;2022-07-23T05:13:16;101965.03;;;14.86;100.00
67654;BME280;54791;52.364;4.648;2022-07-23T05:15:42;101969.41;;;14.89;100.00
67654;BME280;54791;52.364;4.648;2022-07-23T05:18:08;101979.94;;;14.92;100.00
67654;BME280;54791;52.364;4.648;2022-07-23T05:20:34;101984.81;;;15.04;100.00
67654;BME280;54791;52.364;4.648;2022-07-23T05:23:00;101989.47;;;14.99;100.00
67654;BME280;54791;52.364;4.648;2022-07-23T05:25:26;101982.44;;;14.96;100.00
67654;BME280;54791;52.364;4.648;2022-07-23T05:27:51;101994.88;;;14.97;100.00
67654;BME280;54791;52.364;4.648;2022-07-23T05:30:17;101989.25;;;15.05;100.00
67654;BME280;54791;52.364;4.648;2022-07-23T05:32:43;101995.44;;;15.06;100.00
67654;BME280;54791;52.364;4.648;2022-07-23T05:35:09;101998.03;;;15.07;100.00
67654;BME280;54791;52.364;4.648;2022-07-23T05:37:34;101999.50;;;15.16;100.00
67654;BME280;54791;52.364;4.648;2022-07-23T05:40:03;101995.00;;;15.16;100.00
67654;BME280;54791;52.364;4.648;2022-07-23T05:42:29;101999.56;;;15.14;100.00
67654;BME280;54791;52.364;4.648;2022-07-23T05:44:54;102001.72;;;15.27;100.00
67654;BME280;54791;52.364;4.648;2022-07-23T05:47:20;102003.03;;;15.39;100.00
67654;BME280;54791;52.364;4.648;2022-07-23T05:49:46;102000.03;;;15.46;100.00
67654;BME280;54791;52.364;4.648;2022-07-23T05:52:11;102003.97;;;15.60;100.00
67654;BME280;54791;52.364;4.648;2022-07-23T05:54:37;102006.44;;;15.64;100.00
67654;BME280;54791;52.364;4.648;2022-07-23T05:57:03;102003.72;;;15.66;100.00
67654;BME280;54791;52.364;4.648;2022-07-23T05:59:30;102006.59;;;15.84;100.00
67654;BME280;54791;52.364;4.648;2022-07-23T06:01:56;101999.50;;;16.03;100.00
67654;BME280;54791;52.364;4.648;2022-07-23T06:04:21;101997.97;;;16.18;100.00
67654;BME280;54791;52.364;4.648;2022-07-23T06:06:47;102004.53;;;16.31;100.00
67654;BME280;54791;52.364;4.648;2022-07-23T06:09:13;102002.09;;;16.46;100.00
67654;BME280;54791;52.364;4.648;2022-07-23T06:11:39;102005.09;;;16.59;100.00
67654;BME280;54791;52.364;4.648;2022-07-23T06:14:05;101998.47;;;16.47;100.00
67654;BME280;54791;52.364;4.648;2022-07-23T06:16:31;102002.31;;;16.41;100.00
67654;BME280;54791;52.364;4.648;2022-07-23T06:18:57;101994.81;;;16.29;100.00
67654;BME280;54791;52.364;4.648;2022-07-23T06:21:22;101996.06;;;16.22;100.00
67654;BME280;54791;52.364;4.648;2022-07-23T06:23:48;101998.31;;;16.31;100.00
67654;BME280;54791;52.364;4.648;2022-07-23T06:26:14;102005.59;;;16.48;100.00
67654;BME280;54791;52.364;4.648;2022-07-23T06:28:39;102008.00;;;16.73;100.00
67654;BME280;54791;52.364;4.648;2022-07-23T06:31:05;102004.75;;;16.86;100.00
67654;BME280;54791;52.364;4.648;2022-07-23T06:33:30;102008.53;;;16.81;100.00
67654;BME280;54791;52.364;4.648;2022-07-23T06:35:56;102007.69;;;17.00;100.00
67654;BME280;54791;52.364;4.648;2022-07-23T06:38:22;101999.63;;;17.38;100.00
67654;BME280;54791;52.364;4.648;2022-07-23T06:40:47;102007.22;;;17.48;100.00
67654;BME280;54791;52.364;4.648;2022-07-23T06:43:13;102011.19;;;17.58;100.00
67654;BME280;54791;52.364;4.648;2022-07-23T06:45:39;102007.69;;;17.56;100.00
67654;BME280;54791;52.364;4.648;2022-07-23T06:48:05;102009.41;;;17.76;100.00
67654;BME280;54791;52.364;4.648;2022-07-23T06:50:30;102008.66;;;17.90;100.00
67654;BME280;54791;52.364;4.648;2022-07-23T06:52:56;102014.41;;;18.01;100.00
67654;BME280;54791;52.364;4.648;2022-07-23T06:55:22;102003.19;;;18.10;100.00
67654;BME280;54791;52.364;4.648;2022-07-23T06:57:48;102007.88;;;18.07;100.00
67654;BME280;54791;52.364;4.648;2022-07-23T07:00:14;102020.94;;;18.13;100.00
67654;BME280;54791;52.364;4.648;2022-07-23T07:02:40;102026.72;;;18.40;100.00
67654;BME280;54791;52.364;4.648;2022-07-23T07:05:06;102034.50;;;18.45;100.00
67654;BME280;54791;52.364;4.648;2022-07-23T07:07:32;102027.91;;;18.51;100.00
67654;BME280;54791;52.364;4.648;2022-07-23T07:09:58;102030.34;;;18.73;100.00
67654;BME280;54791;52.364;4.648;2022-07-23T07:12:23;102035.22;;;18.82;100.00
67654;BME280;54791;52.364;4.648;2022-07-23T07:14:49;102031.97;;;18.93;100.00
67654;BME280;54791;52.364;4.648;2022-07-23T07:17:14;102033.69;;;18.94;100.00
67654;BME280;54791;52.364;4.648;2022-07-23T07:19:40;102030.50;;;19.03;100.00
67654;BME280;54791;52.364;4.648;2022-07-23T07:22:06;102028.00;;;19.00;100.00
67654;BME280;54791;52.364;4.648;2022-07-23T07:24:32;102029.72;;;19.01;100.00
67654;BME280;54791;52.364;4.648;2022-07-23T07:26:58;102039.56;;;18.85;100.00
67654;BME280;54791;52.364;4.648;2022-07-23T07:29:24;102031.25;;;18.89;100.00
67654;BME280;54791;52.364;4.648;2022-07-23T07:31:49;102036.47;;;19.24;100.00
67654;BME280;54791;52.364;4.648;2022-07-23T07:34:15;102046.13;;;19.29;100.00
67654;BME280;54791;52.364;4.648;2022-07-23T07:36:41;102046.19;;;19.27;100.00
67654;BME280;54791;52.364;4.648;2022-07-23T07:39:08;102048.81;;;19.44;100.00
67654;BME280;54791;52.364;4.648;2022-07-23T07:41:36;102044.28;;;19.61;100.00
67654;BME280;54791;52.364;4.648;2022-07-23T07:44:01;102046.88;;;19.63;100.00
67654;BME280;54791;52.364;4.648;2022-07-23T07:46:27;102052.28;;;19.31;100.00
67654;BME280;54791;52.364;4.648;2022-07-23T07:48:53;102042.56;;;19.28;100.00
67654;BME280;54791;52.364;4.648;2022-07-23T07:51:18;102046.97;;;19.61;100.00
67654;BME280;54791;52.364;4.648;2022-07-23T07:53:44;102046.19;;;19.75;100.00
67654;BME280;54791;52.364;4.648;2022-07-23T07:56:09;102052.16;;;19.96;100.00
67654;BME280;54791;52.364;4.648;2022-07-23T07:58:35;102042.22;;;20.13;100.00
67654;BME280;54791;52.364;4.648;2022-07-23T08:01:01;102050.91;;;20.32;100.00
67654;BME280;54791;52.364;4.648;2022-07-23T08:13:48;102044.91;;;20.86;100.00
67654;BME280;54791;52.364;4.648;2022-07-23T08:16:14;102039.59;;;20.70;100.00
67654;BME280;54791;52.364;4.648;2022-07-23T08:18:40;102040.84;;;20.94;100.00
67654;BME280;54791;52.364;4.648;2022-07-23T08:26:16;102043.22;;;21.13;100.00
67654;BME280;54791;52.364;4.648;2022-07-23T08:31:16;102054.03;;;21.54;100.00
67654;BME280;54791;52.364;4.648;2022-07-23T08:33:42;102061.53;;;21.64;100.00
67654;BME280;54791;52.364;4.648;2022-07-23T08:36:08;102050.06;;;21.18;100.00
67654;BME280;54791;52.364;4.648;2022-07-23T08:41:09;102056.22;;;20.63;100.00
67654;BME280;54791;52.364;4.648;2022-07-23T08:43:36;102053.94;;;20.85;100.00
67654;BME280;54791;52.364;4.648;2022-07-23T09:01:32;102061.66;;;21.48;100.00
67654;BME280;54791;52.364;4.648;2022-07-23T09:27:12;102065.53;;;22.77;100.00
67654;BME280;54791;52.364;4.648;2022-07-23T09:29:38;102058.31;;;22.39;76.67
67654;BME280;54791;52.364;4.648;2022-07-23T09:37:18;102066.38;;;22.91;80.15
67654;BME280;54791;52.364;4.648;2022-07-23T09:39:47;102060.34;;;22.74;78.69
67654;BME280;54791;52.364;4.648;2022-07-23T09:42:19;102066.38;;;22.91;78.72
67654;BME280;54791;52.364;4.648;2022-07-23T09:44:47;102063.13;;;22.98;79.47
67654;BME280;54791;52.364;4.648;2022-07-23T09:47:13;102066.88;;;23.21;78.37
67654;BME280;54791;52.364;4.648;2022-07-23T09:49:39;102067.53;;;23.62;75.84
67654;BME280;54791;52.364;4.648;2022-07-23T09:52:05;102066.22;;;23.55;75.51
67654;BME280;54791;52.364;4.648;2022-07-23T09:54:39;102056.97;;;22.96;64.83
67654;BME280;54791;52.364;4.648;2022-07-23T09:57:11;102056.44;;;22.39;64.55
67654;BME280;54791;52.364;4.648;2022-07-23T09:59:42;102064.44;;;22.67;80.77
67654;BME280;54791;52.364;4.648;2022-07-23T10:02:10;102068.19;;;23.29;76.40
67654;BME280;54791;52.364;4.648;2022-07-23T10:04:38;102063.59;;;22.92;75.86
67654;BME280;54791;52.364;4.648;2022-07-23T10:07:06;102062.81;;;22.90;74.54
67654;BME280;54791;52.364;4.648;2022-07-23T10:09:35;102066.25;;;23.05;75.30
67654;BME280;54791;52.364;4.648;2022-07-23T10:12:05;102059.28;;;22.77;75.61
67654;BME280;54791;52.364;4.648;2022-07-23T10:14:31;102063.16;;;22.06;66.02
67654;BME280;54791;52.364;4.648;2022-07-23T10:17:01;102060.50;;;22.19;67.06
67654;BME280;54791;52.364;4.648;2022-07-23T10:19:27;102054.72;;;22.38;75.29
67654;BME280;54791;52.364;4.648;2022-07-23T10:21:58;102056.09;;;22.83;65.42
67654;BME280;54791;52.364;4.648;2022-07-23T10:31:52;102062.97;;;23.26;58.85
67654;BME280;54791;52.364;4.648;2022-07-23T10:34:34;102062.13;;;22.35;62.00
67654;BME280;54791;52.364;4.648;2022-07-23T10:36:32;102053.94;;;22.88;64.20
67654;BME280;54791;52.364;4.648;2022-07-23T10:39:13;102054.44;;;23.06;60.32
67654;BME280;54791;52.364;4.648;2022-07-23T10:41:41;102054.06;;;22.61;59.50
67654;BME280;54791;52.364;4.648;2022-07-23T10:44:12;102058.59;;;22.86;60.76
67654;BME280;54791;52.364;4.648;2022-07-23T10:47:00;102050.03;;;22.28;67.09
67654;BME280;54791;52.364;4.648;2022-07-23T10:49:33;102050.59;;;22.97;65.64
67654;BME280;54791;52.364;4.648;2022-07-23T10:52:28;102050.28;;;22.76;64.07
67654;BME280;54791;52.364;4.648;2022-07-23T10:55:40;102046.69;;;23.14;65.61
67654;BME280;54791;52.364;4.648;2022-07-23T10:57:50;102046.00;;;23.24;66.21
67654;BME280;54791;52.364;4.648;2022-07-23T11:00:21;102042.25;;;23.86;63.25
67654;BME280;54791;52.364;4.648;2022-07-23T11:02:49;102041.88;;;24.62;58.07
67654;BME280;54791;52.364;4.648;2022-07-23T11:05:18;102048.22;;;23.67;61.34
67654;BME280;54791;52.364;4.648;2022-07-23T11:10:42;102046.19;;;23.82;60.87
67654;BME280;54791;52.364;4.648;2022-07-23T11:13:28;102042.53;;;23.09;55.27
67654;BME280;54791;52.364;4.648;2022-07-23T11:24:06;102050.59;;;22.33;58.59
67654;BME280;54791;52.364;4.648;2022-07-23T11:27:00;102043.19;;;22.09;66.21
67654;BME280;54791;52.364;4.648;2022-07-23T11:32:07;102053.03;;;23.75;59.67
67654;BME280;54791;52.364;4.648;2022-07-23T11:34:47;102051.31;;;23.98;56.06
67654;BME280;54791;52.364;4.648;2022-07-23T11:37:34;102050.25;;;23.52;54.69
67654;BME280;54791;52.364;4.648;2022-07-23T11:40:02;102044.84;;;23.87;55.03
67654;BME280;54791;52.364;4.648;2022-07-23T11:42:28;102051.09;;;24.01;58.45
67654;BME280;54791;52.364;4.648;2022-07-23T11:44:54;102043.31;;;23.96;57.40
67654;BME280;54791;52.364;4.648;2022-07-23T11:47:23;102042.31;;;24.44;57.36
67654;BME280;54791;52.364;4.648;2022-07-23T11:49:58;102042.50;;;24.88;55.86
67654;BME280;54791;52.364;4.648;2022-07-23T11:52:24;102044.59;;;24.03;56.93
67654;BME280;54791;52.364;4.648;2022-07-23T11:54:57;102041.41;;;24.21;54.29
67654;BME280;54791;52.364;4.648;2022-07-23T11:57:29;102039.13;;;24.39;56.52
67654;BME280;54791;52.364;4.648;2022-07-23T12:00:00;102032.13;;;24.71;56.87
67654;BME280;54791;52.364;4.648;2022-07-23T12:02:27;102031.50;;;25.12;56.92
67654;BME280;54791;52.364;4.648;2022-07-23T12:04:53;102029.78;;;24.89;56.01
67654;BME280;54791;52.364;4.648;2022-07-23T12:09:50;102023.22;;;25.25;55.71
67654;BME280;54791;52.364;4.648;2022-07-23T12:12:17;102027.66;;;25.70;54.31
67654;BME280;54791;52.364;4.648;2022-07-23T12:14:53;102023.75;;;25.63;53.13
67654;BME280;54791;52.364;4.648;2022-07-23T12:17:20;102027.69;;;24.81;55.71
67654;BME280;54791;52.364;4.648;2022-07-23T12:19:46;102028.50;;;24.25;58.24
67654;BME280;54791;52.364;4.648;2022-07-23T12:22:13;102024.63;;;24.05;60.04
67654;BME280;54791;52.364;4.648;2022-07-23T12:25:00;102018.31;;;24.51;57.04
67654;BME280;54791;52.364;4.648;2022-07-23T12:27:28;102024.22;;;24.33;56.14
67654;BME280;54791;52.364;4.648;2022-07-23T12:29:54;102027.00;;;24.09;56.99
67654;BME280;54791;52.364;4.648;2022-07-23T12:32:25;102018.47;;;24.72;55.48
67654;BME280;54791;52.364;4.648;2022-07-23T12:35:11;102025.94;;;24.57;53.28
67654;BME280;54791;52.364;4.648;2022-07-23T12:37:39;102016.84;;;24.92;53.60
67654;BME280;54791;52.364;4.648;2022-07-23T12:40:27;102021.44;;;24.11;55.17
67654;BME280;54791;52.364;4.648;2022-07-23T12:42:57;102027.06;;;23.72;54.15
67654;BME280;54791;52.364;4.648;2022-07-23T12:45:23;102026.22;;;24.07;54.41
67654;BME280;54791;52.364;4.648;2022-07-23T12:48:00;102013.16;;;24.59;55.38
67654;BME280;54791;52.364;4.648;2022-07-23T12:50:49;102009.34;;;24.73;54.81
67654;BME280;54791;52.364;4.648;2022-07-23T12:53:18;102007.81;;;25.14;53.39
67654;BME280;54791;52.364;4.648;2022-07-23T12:55:45;102010.38;;;25.16;53.81
67654;BME280;54791;52.364;4.648;2022-07-23T12:58:17;102018.56;;;25.60;52.26
67654;BME280;54791;52.364;4.648;2022-07-23T13:00:56;102006.53;;;25.30;48.03
67654;BME280;54791;52.364;4.648;2022-07-23T13:05:49;102006.09;;;25.13;53.18
67654;BME280;54791;52.364;4.648;2022-07-23T13:08:15;102016.31;;;25.21;47.61
67654;BME280;54791;52.364;4.648;2022-07-23T13:10:40;102012.13;;;25.17;48.25
67654;BME280;54791;52.364;4.648;2022-07-23T13:13:15;102012.47;;;25.24;52.51
67654;BME280;54791;52.364;4.648;2022-07-23T13:15:42;102013.09;;;25.39;50.14
67654;BME280;54791;52.364;4.648;2022-07-23T13:18:08;102022.25;;;25.15;49.01
67654;BME280;54791;52.364;4.648;2022-07-23T13:20:34;102024.50;;;24.98;49.81
67654;BME280;54791;52.364;4.648;2022-07-23T13:23:00;102014.88;;;24.94;52.45
67654;BME280;54791;52.364;4.648;2022-07-23T13:25:26;102014.06;;;25.38;51.47
67654;BME280;54791;52.364;4.648;2022-07-23T13:27:53;102016.22;;;25.88;50.52
67654;BME280;54791;52.364;4.648;2022-07-23T13:30:18;102014.97;;;25.71;51.18
67654;BME280;54791;52.364;4.648;2022-07-23T13:32:44;102016.22;;;25.11;53.08
67654;BME280;54791;52.364;4.648;2022-07-23T13:35:10;102011.69;;;24.78;51.49
67654;BME280;54791;52.364;4.648;2022-07-23T13:37:37;102011.06;;;24.97;53.51
67654;BME280;54791;52.364;4.648;2022-07-23T13:40:03;102000.44;;;25.05;52.25
67654;BME280;54791;52.364;4.648;2022-07-23T13:42:29;102003.47;;;25.34;51.83
67654;BME280;54791;52.364;4.648;2022-07-23T13:44:55;102004.88;;;25.61;51.60
67654;BME280;54791;52.364;4.648;2022-07-23T13:47:20;102003.63;;;25.65;51.40
67654;BME280;54791;52.364;4.648;2022-07-23T13:49:46;102011.53;;;25.57;51.51
67654;BME280;54791;52.364;4.648;2022-07-23T13:52:12;102008.88;;;25.46;52.46
67654;BME280;54791;52.364;4.648;2022-07-23T13:54:37;102011.34;;;25.49;52.90
67654;BME280;54791;52.364;4.648;2022-07-23T13:57:03;102006.31;;;25.33;53.90
67654;BME280;54791;52.364;4.648;2022-07-23T13:59:29;102003.69;;;25.43;53.96
67654;BME280;54791;52.364;4.648;2022-07-23T14:01:54;102001.22;;;25.51;53.71
67654;BME280;54791;52.364;4.648;2022-07-23T14:04:21;102003.19;;;25.49;53.73
67654;BME280;54791;52.364;4.648;2022-07-23T14:06:46;101993.00;;;25.62;53.70
67654;BME280;54791;52.364;4.648;2022-07-23T14:09:12;102003.34;;;25.69;53.95
67654;BME280;54791;52.364;4.648;2022-07-23T14:11:38;101994.63;;;25.86;53.21
67654;BME280;54791;52.364;4.648;2022-07-23T14:14:04;102001.06;;;25.85;52.83
67654;BME280;54791;52.364;4.648;2022-07-23T14:16:30;102005.81;;;25.72;53.41
67654;BME280;54791;52.364;4.648;2022-07-23T14:18:56;102003.81;;;24.75;56.12
67654;BME280;54791;52.364;4.648;2022-07-23T14:21:22;102004.66;;;24.87;56.44
67654;BME280;54791;52.364;4.648;2022-07-23T14:23:48;102005.72;;;25.07;55.24
67654;BME280;54791;52.364;4.648;2022-07-23T14:26:13;101998.06;;;25.12;54.55
67654;BME280;54791;52.364;4.648;2022-07-23T14:28:39;102004.88;;;24.95;55.80
67654;BME280;54791;52.364;4.648;2022-07-23T14:31:05;102000.69;;;25.02;56.22
67654;BME280;54791;52.364;4.648;2022-07-23T14:33:31;102002.31;;;25.05;55.71
67654;BME280;54791;52.364;4.648;2022-07-23T14:35:57;102003.25;;;25.15;55.80
67654;BME280;54791;52.364;4.648;2022-07-23T14:38:24;101998.81;;;25.25;55.33
67654;BME280;54791;52.364;4.648;2022-07-23T14:40:50;102004.56;;;25.32;55.07
67654;BME280;54791;52.364;4.648;2022-07-23T14:43:16;101999.34;;;24.62;56.88
67654;BME280;54791;52.364;4.648;2022-07-23T14:45:41;102007.88;;;24.80;56.56
67654;BME280;54791;52.364;4.648;2022-07-23T14:48:07;101998.25;;;24.88;55.99
67654;BME280;54791;52.364;4.648;2022-07-23T14:50:33;102011.88;;;24.18;58.61
67654;BME280;54791;52.364;4.648;2022-07-23T14:52:59;101999.44;;;24.38;58.52
67654;BME280;54791;52.364;4.648;2022-07-23T14:55:25;102001.06;;;24.86;56.64
67654;BME280;54791;52.364;4.648;2022-07-23T14:57:51;102001.28;;;25.17;55.41
67654;BME280;54791;52.364;4.648;2022-07-23T15:00:17;101996.44;;;25.43;54.75
67654;BME280;54791;52.364;4.648;2022-07-23T15:02:42;101996.25;;;25.12;55.35
67654;BME280;54791;52.364;4.648;2022-07-23T15:05:09;102000.75;;;25.23;54.75
67654;BME280;54791;52.364;4.648;2022-07-23T15:07:35;102004.25;;;25.14;55.07
67654;BME280;54791;52.364;4.648;2022-07-23T15:10:01;102004.31;;;24.80;56.59
67654;BME280;54791;52.364;4.648;2022-07-23T15:12:27;102004.31;;;24.80;56.79
67654;BME280;54791;52.364;4.648;2022-07-23T15:14:53;102000.72;;;24.91;56.71
67654;BME280;54791;52.364;4.648;2022-07-23T15:17:19;101996.53;;;24.98;56.31
67654;BME280;54791;52.364;4.648;2022-07-23T15:19:45;101989.22;;;24.98;56.19
67654;BME280;54791;52.364;4.648;2022-07-23T15:22:10;101989.47;;;24.61;57.85
67654;BME280;54791;52.364;4.648;2022-07-23T15:24:36;101985.81;;;24.74;57.72
67654;BME280;54791;52.364;4.648;2022-07-23T15:27:02;101984.91;;;24.28;59.38
67654;BME280;54791;52.364;4.648;2022-07-23T15:29:27;101990.47;;;24.49;58.72
67654;BME280;54791;52.364;4.648;2022-07-23T15:31:53;101987.34;;;24.19;59.91
67654;BME280;54791;52.364;4.648;2022-07-23T15:34:19;101991.13;;;24.06;60.71
67654;BME280;54791;52.364;4.648;2022-07-23T15:36:45;101990.19;;;24.41;58.68
67654;BME280;54791;52.364;4.648;2022-07-23T17:17:05;101958.28;;;23.39;59.12
67654;BME280;54791;52.364;4.648;2022-07-23T17:19:31;101953.03;;;23.49;58.99
67654;BME280;54791;52.364;4.648;2022-07-23T17:21:57;101946.81;;;23.60;58.83
67654;BME280;54791;52.364;4.648;2022-07-23T17:24:22;101946.75;;;23.48;58.91
67654;BME280;54791;52.364;4.648;2022-07-23T17:26:48;101942.78;;;23.41;59.44
67654;BME280;54791;52.364;4.648;2022-07-23T17:29:14;101947.34;;;23.41;59.61
67654;BME280;54791;52.364;4.648;2022-07-23T17:31:41;101957.06;;;23.19;56.81
67654;BME280;54791;52.364;4.648;2022-07-23T17:34:06;101950.94;;;23.17;59.83
67654;BME280;54791;52.364;4.648;2022-07-23T17:36:34;101951.91;;;23.16;59.49
67654;BME280;54791;52.364;4.648;2022-07-23T17:39:01;101948.41;;;23.14;59.91
67654;BME280;54791;52.364;4.648;2022-07-23T17:41:27;101948.66;;;23.11;60.00
67654;BME280;54791;52.364;4.648;2022-07-23T17:43:53;101950.03;;;22.92;60.06
67654;BME280;54791;52.364;4.648;2022-07-23T17:46:19;101948.50;;;22.88;60.46
67654;BME280;54791;52.364;4.648;2022-07-23T17:48:45;101955.38;;;23.05;59.98
67654;BME280;54791;52.364;4.648;2022-07-23T17:51:11;101945.53;;;23.04;59.86
67654;BME280;54791;52.364;4.648;2022-07-23T17:53:36;101949.53;;;22.98;60.11
67654;BME280;54791;52.364;4.648;2022-07-23T17:56:02;101952.94;;;22.89;60.11
67654;BME280;54791;52.364;4.648;2022-07-23T17:58:29;101947.47;;;22.65;58.92
67654;BME280;54791;52.364;4.648;2022-07-23T18:00:55;101948.38;;;22.52;61.13
67654;BME280;54791;52.364;4.648;2022-07-23T18:03:22;101947.50;;;22.52;61.35
67654;BME280;54791;52.364;4.648;2022-07-23T18:05:47;101950.19;;;22.52;61.07
67654;BME280;54791;52.364;4.648;2022-07-23T18:08:14;101943.63;;;22.56;60.59
67654;BME280;54791;52.364;4.648;2022-07-23T18:10:39;101942.97;;;22.52;59.81
67654;BME280;54791;52.364;4.648;2022-07-23T18:13:06;101934.03;;;22.39;61.11
67654;BME280;54791;52.364;4.648;2022-07-23T18:15:32;101937.16;;;22.46;61.35
67654;BME280;54791;52.364;4.648;2022-07-23T18:17:58;101937.44;;;22.54;60.73
67654;BME280;54791;52.364;4.648;2022-07-23T18:20:25;101926.53;;;22.55;61.05
67654;BME280;54791;52.364;4.648;2022-07-23T18:22:50;101940.91;;;22.56;61.07
67654;BME280;54791;52.364;4.648;2022-07-23T18:25:18;101935.38;;;22.58;60.93
67654;BME280;54791;52.364;4.648;2022-07-23T18:27:45;101941.53;;;22.60;61.12
67654;BME280;54791;52.364;4.648;2022-07-23T18:30:11;101942.84;;;22.54;61.49
67654;BME280;54791;52.364;4.648;2022-07-23T18:32:38;101938.13;;;22.45;62.14
67654;BME280;54791;52.364;4.648;2022-07-23T18:35:07;101941.66;;;22.32;62.80
67654;BME280;54791;52.364;4.648;2022-07-23T18:37:33;101938.31;;;22.29;63.19
67654;BME280;54791;52.364;4.648;2022-07-23T18:39:59;101946.84;;;22.22;63.02
67654;BME280;54791;52.364;4.648;2022-07-23T18:42:25;101941.03;;;22.29;62.91
67654;BME280;54791;52.364;4.648;2022-07-23T18:44:51;101937.00;;;22.34;63.01
67654;BME280;54791;52.364;4.648;2022-07-23T18:47:17;101930.09;;;22.30;63.13
67654;BME280;54791;52.364;4.648;2022-07-23T18:49:43;101940.69;;;22.33;63.27
67654;BME280;54791;52.364;4.648;2022-07-23T18:52:08;101930.75;;;22.34;63.58
67654;BME280;54791;52.364;4.648;2022-07-23T18:54:34;101941.03;;;22.29;64.14
67654;BME280;54791;52.364;4.648;2022-07-23T18:57:00;101930.78;;;22.21;64.49
67654;BME280;54791;52.364;4.648;2022-07-23T18:59:26;101932.94;;;22.16;64.61
67654;BME280;54791;52.364;4.648;2022-07-23T19:01:52;101933.66;;;22.05;64.86
67654;BME280;54791;52.364;4.648;2022-07-23T19:04:18;101934.22;;;22.10;65.16
67654;BME280;54791;52.364;4.648;2022-07-23T19:06:44;101936.47;;;22.16;64.56
67654;BME280;54791;52.364;4.648;2022-07-23T19:09:10;101926.53;;;22.17;64.53
67654;BME280;54791;52.364;4.648;2022-07-23T19:11:36;101930.44;;;22.13;64.71
67654;BME280;54791;52.364;4.648;2022-07-23T19:14:03;101926.44;;;22.05;65.08
67654;BME280;54791;52.364;4.648;2022-07-23T19:16:29;101931.84;;;22.05;65.50
67654;BME280;54791;52.364;4.648;2022-07-23T19:18:55;101928.38;;;22.03;65.60
67654;BME280;54791;52.364;4.648;2022-07-23T19:21:21;101930.00;;;22.06;65.51
67654;BME280;54791;52.364;4.648;2022-07-23T19:23:46;101935.94;;;21.98;65.70
67654;BME280;54791;52.364;4.648;2022-07-23T19:26:12;101932.47;;;21.96;66.37
67654;BME280;54791;52.364;4.648;2022-07-23T19:28:38;101941.84;;;21.78;66.91
67654;BME280;54791;52.364;4.648;2022-07-23T19:31:04;101940.44;;;21.72;67.38
67654;BME280;54791;52.364;4.648;2022-07-23T19:33:30;101938.50;;;21.74;67.58
67654;BME280;54791;52.364;4.648;2022-07-23T19:35:56;101941.19;;;21.74;67.74
67654;BME280;54791;52.364;4.648;2022-07-23T19:38:21;101936.34;;;21.79;67.52
67654;BME280;54791;52.364;4.648;2022-07-23T19:40:47;101940.78;;;21.80;67.45
67654;BME280;54791;52.364;4.648;2022-07-23T19:43:13;101952.22;;;21.84;67.48
67654;BME280;54791;52.364;4.648;2022-07-23T19:45:39;101936.22;;;21.81;67.84
67654;BME280;54791;52.364;4.648;2022-07-23T19:48:05;101950.59;;;21.68;68.21
67654;BME280;54791;52.364;4.648;2022-07-23T19:50:31;101944.34;;;21.68;68.69
67654;BME280;54791;52.364;4.648;2022-07-23T19:52:59;101953.94;;;21.72;69.04
67654;BME280;54791;52.364;4.648;2022-07-23T19:55:26;101949.41;;;21.72;69.06
67654;BME280;54791;52.364;4.648;2022-07-23T19:57:52;101947.56;;;21.60;70.03
67654;BME280;54791;52.364;4.648;2022-07-23T20:00:18;101945.16;;;21.55;70.22
67654;BME280;54791;52.364;4.648;2022-07-23T20:02:46;101944.41;;;21.66;70.08
67654;BME280;54791;52.364;4.648;2022-07-23T20:05:12;101934.16;;;21.71;69.96
67654;BME280;54791;52.364;4.648;2022-07-23T20:07:39;101945.19;;;21.68;70.36
67654;BME280;54791;52.364;4.648;2022-07-23T20:10:06;101946.25;;;21.66;70.84
67654;BME280;54791;52.364;4.648;2022-07-23T20:12:33;101954.28;;;21.53;71.63
67654;BME280;54791;52.364;4.648;2022-07-23T20:14:58;101951.16;;;21.46;72.80
67654;BME280;54791;52.364;4.648;2022-07-23T20:17:24;101949.31;;;21.47;72.51
67654;BME280;54791;52.364;4.648;2022-07-23T20:19:50;101943.34;;;21.41;73.03
67654;BME280;54791;52.364;4.648;2022-07-23T20:22:15;101940.47;;;21.45;73.03
67654;BME280;54791;52.364;4.648;2022-07-23T20:24:42;101944.88;;;21.46;73.35
67654;BME280;54791;52.364;4.648;2022-07-23T20:27:07;101934.06;;;21.46;73.12
67654;BME280;54791;52.364;4.648;2022-07-23T20:29:33;101939.47;;;21.46;73.31
67654;BME280;54791;52.364;4.648;2022-07-23T20:31:59;101931.16;;;21.36;74.02